Perryopolis, PA (15473)

12:04 AM EST on February 13, 2016 (GMT -0500)
Rostraver Township | | Change Station
CLOSE
Current Station
Personal Weather Station
Location: Belle Vernon, PA
Elevation: 994 ft
Nearby Weather Stations
Active Advisory: Wind Chill Advisory

Elev 994 ft 40.15 °N, 79.79 °W | Updated 5 seconds ago

Overcast
Overcast
18.9 °F
Feels Like 19 °F
N
1.8
Wind Variable Wind from WSW
Gusts 2.5 mph

Today
High -- | Low -- °F
--% Chance of Precip.
Yesterday
High -- | Low -- °F
Precip. -- in
Pressure 29.99 in
Visibility 1.8 miles
Clouds Mostly Cloudy 2100 ft
Overcast 2800 ft
Windchill 19 °F
Dew Point 2 °F
Humidity 47%
Rainfall 0.00 in
Snow Depth Not available.
7:15 AM 5:51 PM
Waxing Crescent, 27% visible
SPECI KAGC 130459Z AUTO 31011G23KT 1 3/4SM -SN BKN021 OVC028 M08/M12 A2999 RMK AO2 P0000 T10781122 TSNO
Pressure 29.99 in
Visibility 1.8 miles
Clouds Mostly Cloudy 2100 ft
Overcast 2800 ft
Windchill 19 °F
Dew Point 2 °F
Humidity 47%
Rainfall 0.00 in
Snow Depth Not available.
7:15 AM 5:51 PM
Waxing Crescent, 27% visible
SPECI KAGC 130459Z AUTO 31011G23KT 1 3/4SM -SN BKN021 OVC028 M08/M12 A2999 RMK AO2 P0000 T10781122 TSNO

10-Day Weather Forecast

Almanac

Astronomy

Feb. 13, 2016 Rise Set
Actual Time
Civil Twilight
Nautical Twilight
Astronomical Twilight
Moon
Length of Visible Light
Length of Day
Tomorrow will be .
, % of the Moon is Illuminated

Today's Extremes

State Highs State Lows

Community

WunderPhotos

Upload Photos

1,892,501 photos uploaded!

WunderBlog® & News

Nearby

Air Quality

  Air Quality AQ Index Pollutant
Not available.

Snow Depth

Station Depth Elevation

Earthquake Activity

City Distance Mag. Time & Date
Minimum magnitude displayed is 2.5.

Coastal Water Temperatures

Place Temperature

Stations

Nearby Weather Stations

Station Location Temp. Windchill Dew Point Humidity Wind Precip. Elev Updated Type
                   

Watches & Warnings

Wind Chill Advisory
Issued: 10:29 PM EST Feb. 12, 2016 – National Weather Service

... Wind Chill Advisory remains in effect until 9 am EST Sunday...

* wind chill... as low as 17 below due to temperatures 4 below to
14 above zero... and winds northwest 10 to 20 mph with gusts up
to 35 mph.

* Impacts... frost bite and hypothermia are possible if
precautions are not taken.